logo tempoitalia

Diretta Meteo Waco-Tsti, Stati Uniti (USA)lunedì 31 agosto ore 01:35

Mappa
Sereno 26 °C Sereno 24 Ore: T.min 23 T.max 38
Ponente Sud/Sud-Est Km/h 11.1 Punto di rugiada: 19 °C Umidità: 65% Visibilità: 10 Km
Il sole sorge alle: 07:03 Il sole tramonta alle: 19:53
31 Agosto 2026 01:35 tempo osservato: Sereno Sereno 26 65 1015 vento: Nord S/SE 11.1
31 Agosto 2026 01:15 tempo osservato: Sereno Sereno 27 61 1015 vento: Nord S/SE 9.3
31 Agosto 2026 00:55 tempo osservato: Sereno Sereno 28 58 1015 vento: Nord S 11.1
31 Agosto 2026 00:35 tempo osservato: Sereno Sereno 28 58 1015 vento: Nord S 13
31 Agosto 2026 00:15 tempo osservato: Sereno Sereno 28 54 1014 vento: Nord S 14.8
30 Agosto 2026 23:55 tempo osservato: Sereno Sereno 28 54 1014 vento: Nord S 14.8
30 Agosto 2026 23:35 tempo osservato: Sereno Sereno 28 54 1014 vento: Nord S 13
30 Agosto 2026 23:15 tempo osservato: Sereno Sereno 27 57 1014 vento: Nord S/SE 9.3
30 Agosto 2026 22:55 tempo osservato: Sereno Sereno 27 57 1014 vento: Nord SE 11.1
30 Agosto 2026 22:35 tempo osservato: Sereno Sereno 28 51 1014 vento: Nord SE 9.3
30 Agosto 2026 22:15 tempo osservato: Sereno Sereno 28 51 1013 vento: Nord S/SE 9.3
30 Agosto 2026 21:55 tempo osservato: Sereno Sereno 28 51 1013 vento: Nord S/SE 11.1
30 Agosto 2026 21:35 tempo osservato: Sereno Sereno 29 48 1013 vento: Nord S/SE 9.3
30 Agosto 2026 21:15 tempo osservato: Sereno Sereno 30 45 1012 vento: Nord S/SE 9.3
30 Agosto 2026 20:55 tempo osservato: Sereno Sereno 30 45 1012 vento: Nord S/SE 9.3
30 Agosto 2026 20:35 tempo osservato: Sereno Sereno 31 43 1012 vento: Nord S 7.4
30 Agosto 2026 20:15 tempo osservato: Sereno Sereno 32 40 1012 vento: Nord S 11.1
30 Agosto 2026 19:55 tempo osservato: Sereno Sereno 33 38 1012 vento: Nord S 14.8
30 Agosto 2026 18:55 tempo osservato: Poco Nuvoloso Poco Nuvoloso 36 30 1012 vento: Nord S 14.8
30 Agosto 2026 17:55 tempo osservato: Nuvoloso Nuvoloso 37 27 1012 vento: Nord S 14.8
30 Agosto 2026 16:55 tempo osservato: Nuvoloso Nuvoloso 38 27 1012 vento: Nord S/SE 18.5
30 Agosto 2026 15:55 tempo osservato: Sereno Sereno 38 25 1013 vento: Nord S/SE 14.8
30 Agosto 2026 14:55 tempo osservato: Sereno Sereno 38 31 1014 vento: Nord S/SE 18.5
30 Agosto 2026 13:55 tempo osservato: Sereno Sereno 36 34 1015 vento: Nord N 1.8
30 Agosto 2026 12:55 tempo osservato: Sereno Sereno 36 36 1016 vento: Nord S 13
30 Agosto 2026 11:55 tempo osservato: Sereno Sereno 34 43 1017 vento: Nord S 13
30 Agosto 2026 10:55 tempo osservato: Sereno Sereno 32 49 1017 vento: Nord S 16.7
30 Agosto 2026 09:55 tempo osservato: Foschia Foschia 30 62 1017 vento: Nord S/SO 14.8
30 Agosto 2026 08:55 tempo osservato: Foschia Foschia 27 74 1017 vento: Nord S 13
30 Agosto 2026 07:55 tempo osservato: Foschia Foschia 24 88 1016 vento: Nord S/SE 7.4
30 Agosto 2026 07:00 tempo osservato: Foschia Foschia 23 94 1015 vento: Nord S/SE 7.4
30 Agosto 2026 06:15 tempo osservato: Sereno Sereno 23 94 1015 vento: Nord SE 9.3
30 Agosto 2026 05:55 tempo osservato: Sereno Sereno 24 88 1015 vento: Nord N 5.5
30 Agosto 2026 05:35 tempo osservato: Sereno Sereno 24 88 1015 vento: Nord S 7.4
30 Agosto 2026 05:15 tempo osservato: Sereno Sereno 24 88 1015 vento: Nord S 9.3
30 Agosto 2026 04:55 tempo osservato: Sereno Sereno 24 88 1015 vento: Nord S/SE 7.4
30 Agosto 2026 04:35 tempo osservato: Sereno Sereno 25 83 1015 vento: Nord S/SE 7.4
30 Agosto 2026 04:15 tempo osservato: Sereno Sereno 26 78 1015 vento: Nord S 11.1
30 Agosto 2026 03:55 tempo osservato: Sereno Sereno 26 78 1015 vento: Nord S 9.3
30 Agosto 2026 03:35 tempo osservato: Sereno Sereno 27 74 1015 vento: Nord S 9.3
30 Agosto 2026 03:15 tempo osservato: Sereno Sereno 27 69 1015 vento: Nord S 11.1
30 Agosto 2026 02:55 tempo osservato: Sereno Sereno 27 69 1015 vento: Nord S 11.1
30 Agosto 2026 02:35 tempo osservato: Sereno Sereno 27 69 1015 vento: Nord S 11.1
30 Agosto 2026 02:15 tempo osservato: Sereno Sereno 28 65 1015 vento: Nord S 16.7
30 Agosto 2026 01:55 tempo osservato: Sereno Sereno 28 65 1015 vento: Nord S/SO 13
30 Agosto 2026 01:35 tempo osservato: Sereno Sereno 28 61 1015 vento: Nord S 13